Time;durP1;ratioP1;P1;durP2;ratioP2;P2;SDS_P1;SDS_P2;PMS_P1;PMS_P2;Temp;Humidity;BMP_temperature;BMP_pressure;BME280_temperature;BME280_humidity;BME280_pressure;Samples;Min_cycle;Max_cycle;Signal;HPM_P1;HPM_P2
2021/03/17 00:00:25;;;;;;;27.42;17.67;;;;;;;3.45;99.15;98789.39;1771583;81;21189;-77
2021/03/17 00:03:49;;;;;;;34.35;20.02;;;;;;;3.45;99.29;98799.36;1771615;81;21264;-77
2021/03/17 00:07:12;;;;;;;35.00;22.45;;;;;;;3.45;99.44;98791.25;1771507;81;21787;-77
2021/03/17 00:10:40;;;;;;;47.05;34.27;;;;;;;3.46;99.58;98783.48;1770250;81;21153;-77
2021/03/17 00:14:04;;;;;;;32.28;20.75;;;;;;;3.45;99.67;98776.38;1770265;81;21229;-77
2021/03/17 00:17:27;;;;;;;37.28;23.38;;;;;;;3.47;99.75;98777.05;1769034;81;21336;-77
2021/03/17 00:20:51;;;;;;;32.67;19.82;;;;;;;3.51;99.81;98773.84;1770487;81;21177;-77
2021/03/17 00:24:09;;;;;;;45.98;35.33;;;;;;;3.54;99.76;98774.03;1770646;81;21307;-77
2021/03/17 00:27:33;;;;;;;32.67;24.35;;;;;;;3.54;99.72;98780.27;1771623;81;21299;-77
2021/03/17 00:30:55;;;;;;;49.23;33.90;;;;;;;3.54;99.67;98774.03;1771569;81;21276;-77
2021/03/17 00:34:19;;;;;;;63.48;47.90;;;;;;;3.55;99.66;98772.49;1769087;81;21316;-77
2021/03/17 00:37:42;;;;;;;98.47;74.97;;;;;;;3.57;99.62;98772.31;1770464;81;21185;-77
2021/03/17 00:41:05;;;;;;;102.10;72.32;;;;;;;3.56;99.54;98769.28;1770541;81;21824;-77
2021/03/17 00:44:29;;;;;;;41.28;20.48;;;;;;;3.53;99.49;98768.28;1769397;81;21323;-77
2021/03/17 00:47:52;;;;;;;32.00;21.93;;;;;;;3.50;99.54;98765.40;1772103;79;21522;-77
2021/03/17 00:51:00;;;;;;;91.72;75.10;;;;;;;3.53;99.62;98766.94;1770514;81;21831;-77
2021/03/17 00:54:17;;;;;;;52.17;34.45;;;;;;;3.54;99.63;98763.21;1770493;81;21458;-77
2021/03/17 00:57:25;;;;;;;33.60;23.95;;;;;;;3.56;99.67;98761.17;1766803;81;21236;-77
2021/03/17 01:00:32;;;;;;;60.63;41.40;;;;;;;3.57;99.68;98758.80;1769502;81;21894;-77
2021/03/17 01:03:39;;;;;;;93.78;74.00;;;;;;;3.56;99.72;98757.95;1769049;81;21775;-77
2021/03/17 01:06:45;;;;;;;70.72;54.03;;;;;;;3.57;99.68;98748.83;1769866;81;21314;-77
2021/03/17 01:09:50;;;;;;;108.95;94.52;;;;;;;3.58;99.64;98748.34;1770503;81;21166;-78
2021/03/17 01:12:55;;;;;;;46.88;34.10;;;;;;;3.57;99.62;98746.62;1770498;81;21594;-77
2021/03/17 01:16:01;;;;;;;61.53;42.43;;;;;;;3.53;99.52;98752.06;1771140;81;21221;-77
2021/03/17 01:19:06;;;;;;;81.00;62.27;;;;;;;3.51;99.58;98744.61;1771602;81;21264;-78
2021/03/17 01:22:11;;;;;;;40.73;28.50;;;;;;;3.50;99.70;98746.98;1771623;81;21189;-78
2021/03/17 01:25:21;;;;;;;112.70;89.62;;;;;;;3.50;99.79;98746.98;1771581;81;21268;-78
2021/03/17 01:28:26;;;;;;;54.60;36.65;;;;;;;3.50;99.93;98749.69;1771874;81;21191;-78
2021/03/17 01:31:32;;;;;;;70.37;53.63;;;;;;;3.47;100.00;98744.09;1771109;81;21292;-78
2021/03/17 01:34:38;;;;;;;51.83;38.95;;;;;;;3.48;100.00;98743.11;1770520;81;21295;-78
2021/03/17 01:37:45;;;;;;;74.65;59.88;;;;;;;3.49;100.00;98750.20;1769408;81;21328;-78
2021/03/17 01:40:52;;;;;;;105.30;89.42;;;;;;;3.51;100.00;98752.72;1769556;81;21870;-78
2021/03/17 01:43:58;;;;;;;42.35;28.38;;;;;;;3.49;100.00;98752.06;1771714;81;21140;-78
2021/03/17 01:47:04;;;;;;;61.28;37.30;;;;;;;3.49;100.00;98746.14;1770242;81;21149;-78
2021/03/17 01:50:13;;;;;;;130.50;105.90;;;;;;;3.49;100.00;98747.50;1772243;79;21788;-78
2021/03/17 01:53:20;;;;;;;72.10;52.15;;;;;;;3.50;100.00;98742.42;1771668;81;21265;-78
2021/03/17 01:56:26;;;;;;;97.45;80.00;;;;;;;3.50;100.00;98744.28;1771118;81;21870;-78
2021/03/17 01:59:32;;;;;;;92.72;70.95;;;;;;;3.51;100.00;98750.02;1769247;81;21315;-77
2021/03/17 02:02:38;;;;;;;69.97;54.58;;;;;;;3.53;100.00;98748.02;1769268;81;21305;-78
2021/03/17 02:05:51;;;;;;;68.35;50.12;;;;;;;3.52;100.00;98747.14;1770585;81;21246;-78
2021/03/17 02:08:57;;;;;;;53.35;40.75;;;;;;;3.50;100.00;98747.83;1771611;81;21787;-77
2021/03/17 02:12:11;;;;;;;44.40;30.65;;;;;;;3.50;100.00;98741.58;1771671;81;21311;-76
2021/03/17 02:15:57;;;;;;;75.72;61.70;;;;;;;3.53;100.00;98750.72;1771641;81;21145;-77
2021/03/17 02:19:14;;;;;;;57.27;48.78;;;;;;;3.56;100.00;98747.14;1769203;81;21311;-76
2021/03/17 02:23:03;;;;;;;59.13;42.95;;;;;;;3.60;100.00;98742.25;1769015;81;21197;-77
2021/03/17 02:26:42;;;;;;;61.63;46.90;;;;;;;3.66;100.00;98740.72;1747996;81;21259;-76
2021/03/17 02:30:10;;;;;;;35.10;23.10;;;;;;;3.65;100.00;98753.91;1770548;81;21367;-77
2021/03/17 02:33:48;;;;;;;39.67;29.03;;;;;;;3.65;100.00;98750.69;1770817;81;21332;-76
2021/03/17 02:37:13;;;;;;;46.75;34.50;;;;;;;3.65;100.00;98750.69;1769053;81;22005;-77
2021/03/17 02:40:40;;;;;;;38.23;29.92;;;;;;;3.65;100.00;98749.34;1770536;81;21312;-76
2021/03/17 02:43:47;;;;;;;75.47;65.85;;;;;;;3.65;100.00;98749.34;1770602;81;21334;-77
2021/03/17 02:46:54;;;;;;;70.95;58.40;;;;;;;3.65;100.00;98749.34;1771669;81;21259;-77
2021/03/17 02:50:00;;;;;;;59.27;47.20;;;;;;;3.67;100.00;98756.80;1779399;79;21291;-76
2021/03/17 02:53:05;;;;;;;36.38;26.33;;;;;;;3.67;100.00;98750.03;1803674;79;21141;-76
2021/03/17 02:56:17;;;;;;;38.35;22.07;;;;;;;3.68;100.00;98748.17;1786835;79;21751;-77
2021/03/17 02:59:28;;;;;;;38.60;23.22;;;;;;;3.71;100.00;98760.81;1803744;79;21331;-77
2021/03/17 03:02:33;;;;;;;35.95;19.85;;;;;;;3.74;100.00;98756.43;1803685;79;21307;-77
2021/03/17 03:05:41;;;;;;;30.17;23.05;;;;;;;3.75;100.00;98750.52;1803804;79;21275;-77
2021/03/17 03:08:48;;;;;;;76.15;59.75;;;;;;;3.76;100.00;98748.98;1803778;79;21784;-77
2021/03/17 03:11:53;;;;;;;42.70;30.30;;;;;;;3.78;100.00;98746.96;1803703;79;21177;-76
2021/03/17 03:14:59;;;;;;;88.22;77.55;;;;;;;3.75;100.00;98745.09;1803831;79;21256;-77
2021/03/17 03:18:07;;;;;;;62.88;55.98;;;;;;;3.73;100.00;98748.50;1803576;79;21854;-77
2021/03/17 03:21:14;;;;;;;52.30;42.33;;;;;;;3.74;100.00;98752.88;1803697;79;21149;-77
2021/03/17 03:24:21;;;;;;;58.65;49.25;;;;;;;3.77;100.00;98745.28;1786990;79;21145;-78
2021/03/17 03:27:27;;;;;;;39.10;29.45;;;;;;;3.81;100.00;98745.77;1803926;79;21252;-77
2021/03/17 03:30:34;;;;;;;46.42;33.33;;;;;;;3.81;100.00;98746.63;1803816;79;21259;-77
2021/03/17 03:33:40;;;;;;;33.70;24.02;;;;;;;3.84;100.00;98748.13;1803738;79;21720;-77
2021/03/17 03:36:45;;;;;;;23.00;16.07;;;;;;;3.84;100.00;98744.08;1803805;79;21240;-77
2021/03/17 03:39:50;;;;;;;31.15;19.45;;;;;;;3.85;100.00;98749.30;1803777;79;21330;-77
2021/03/17 03:42:56;;;;;;;32.13;22.60;;;;;;;3.84;100.00;98749.48;1803785;79;21189;-77
2021/03/17 03:46:02;;;;;;;28.62;13.60;;;;;;;3.83;100.00;98747.30;1803830;79;21200;-77
2021/03/17 03:49:09;;;;;;;30.35;22.40;;;;;;;3.83;100.00;98747.30;1803750;79;21303;-77
2021/03/17 03:52:21;;;;;;;30.80;22.27;;;;;;;3.90;100.00;98749.30;1807340;79;21287;-76
2021/03/17 03:55:49;;;;;;;41.88;32.53;;;;;;;3.92;100.00;98753.54;1812299;79;21784;-77
2021/03/17 03:58:58;;;;;;;38.02;29.18;;;;;;;3.94;100.00;98755.55;1812271;79;21299;-77
2021/03/17 04:02:05;;;;;;;63.10;54.70;;;;;;;3.97;100.00;98753.86;1812280;79;21309;-77
2021/03/17 04:05:12;;;;;;;33.35;27.25;;;;;;;3.96;100.00;98763.00;1812265;79;21149;-77
2021/03/17 04:08:21;;;;;;;39.13;32.63;;;;;;;3.95;100.00;98764.03;1812322;79;21791;-77
2021/03/17 04:11:27;;;;;;;69.15;56.25;;;;;;;3.97;100.00;98767.91;1812451;79;21141;-77
2021/03/17 04:14:33;;;;;;;35.20;23.83;;;;;;;4.00;100.00;98766.19;1812314;79;21732;-76
2021/03/17 04:17:53;;;;;;;33.20;28.75;;;;;;;4.03;100.00;98769.41;1812126;79;21231;-77
2021/03/17 04:21:00;;;;;;;33.65;25.45;;;;;;;4.08;100.00;98769.72;1811374;79;21803;-77
2021/03/17 04:24:08;;;;;;;35.98;21.70;;;;;;;4.12;100.00;98771.59;1792701;79;21257;-76
2021/03/17 04:27:14;;;;;;;30.45;20.57;;;;;;;4.10;100.00;98768.22;1780313;80;21808;-77
2021/03/17 04:30:20;;;;;;;39.78;30.12;;;;;;;4.07;99.91;98764.50;1780371;80;21154;-77
2021/03/17 04:33:26;;;;;;;47.10;32.90;;;;;;;4.06;99.92;98762.30;1791935;79;21775;-77
2021/03/17 04:36:33;;;;;;;40.05;31.90;;;;;;;4.07;99.99;98760.44;1803097;79;21287;-76
2021/03/17 04:39:40;;;;;;;47.17;34.53;;;;;;;4.09;100.00;98759.74;1757721;80;21355;-77
2021/03/17 04:42:49;;;;;;;29.32;18.07;;;;;;;4.11;100.00;98769.91;1780834;79;21145;-77
2021/03/17 04:45:54;;;;;;;27.87;18.27;;;;;;;4.09;100.00;98766.51;1780320;80;21777;-76
2021/03/17 04:49:00;;;;;;;31.10;20.62;;;;;;;4.10;100.00;98757.40;1783379;79;21257;-77
2021/03/17 04:52:05;;;;;;;28.80;18.00;;;;;;;4.14;100.00;98766.87;1810426;79;21185;-77
2021/03/17 04:55:10;;;;;;;25.70;17.75;;;;;;;4.14;100.00;98768.70;1780305;80;21696;-77
2021/03/17 04:58:22;;;;;;;27.48;14.78;;;;;;;4.08;100.00;98766.18;1797203;79;21276;-77
2021/03/17 05:01:27;;;;;;;34.92;15.98;;;;;;;4.02;100.00;98763.66;1783013;79;21909;-77
2021/03/17 05:04:33;;;;;;;28.23;17.90;;;;;;;4.01;100.00;98769.25;1807607;79;21183;-76
2021/03/17 05:07:40;;;;;;;27.20;16.73;;;;;;;4.01;100.00;98766.55;1785692;79;21295;-77
2021/03/17 05:10:47;;;;;;;47.10;28.00;;;;;;;4.01;100.00;98769.25;1809542;79;21295;-76
2021/03/17 05:13:53;;;;;;;28.25;16.87;;;;;;;4.01;100.00;98767.39;1779418;79;21878;-77
2021/03/17 05:16:59;;;;;;;29.77;18.15;;;;;;;4.06;100.00;98773.13;1785164;79;21268;-77
2021/03/17 05:20:04;;;;;;;31.97;18.25;;;;;;;4.08;100.00;98768.38;1802373;79;21883;-77
2021/03/17 05:23:11;;;;;;;38.48;19.80;;;;;;;4.09;100.00;98767.38;1811137;79;21289;-76
2021/03/17 05:26:17;;;;;;;42.58;23.98;;;;;;;4.14;100.00;98774.11;1775662;79;22727;-77
2021/03/17 05:29:30;;;;;;;45.85;20.45;;;;;;;4.19;100.00;98776.66;1790665;79;21307;-77
2021/03/17 05:32:40;;;;;;;45.58;22.13;;;;;;;4.24;100.00;98785.10;1797309;79;21282;-77
2021/03/17 05:35:49;;;;;;;42.38;21.55;;;;;;;4.29;100.00;98788.13;1793837;79;21164;-77
2021/03/17 05:38:55;;;;;;;45.25;22.25;;;;;;;4.33;100.00;98781.36;1795629;79;21477;-79
2021/03/17 05:42:01;;;;;;;50.48;24.23;;;;;;;4.39;100.00;98781.68;1786103;79;21192;-79
2021/03/17 05:45:06;;;;;;;41.55;19.62;;;;;;;4.47;100.00;98782.50;1783622;79;21176;-79
2021/03/17 05:48:13;;;;;;;39.88;19.25;;;;;;;4.54;100.00;98782.63;1791365;79;21184;-77
2021/03/17 05:51:22;;;;;;;40.85;20.23;;;;;;;4.58;100.00;98790.75;1791046;79;21271;-77
2021/03/17 05:54:29;;;;;;;38.78;20.17;;;;;;;4.66;100.00;98792.56;1781339;79;21941;-78
2021/03/17 05:57:38;;;;;;;31.35;15.58;;;;;;;4.73;100.00;98800.33;1782046;79;21878;-77
2021/03/17 06:00:50;;;;;;;36.00;18.67;;;;;;;4.80;100.00;98796.76;1784388;79;21283;-77
2021/03/17 06:03:57;;;;;;;30.23;16.90;;;;;;;4.86;100.00;98797.91;1782947;79;21295;-77
2021/03/17 06:07:08;;;;;;;24.55;13.05;;;;;;;4.92;100.00;98793.64;1780338;79;21338;-77
2021/03/17 06:10:17;;;;;;;28.10;15.85;;;;;;;4.97;100.00;98798.86;1779186;79;21300;-77
2021/03/17 06:16:05;;;;;;;29.75;15.95;;;;;;;5.09;100.00;98810.16;1815470;76;22298;-78
2021/03/17 06:19:11;;;;;;;23.62;13.22;;;;;;;5.06;100.00;98812.70;1771521;79;21556;-78
2021/03/17 06:22:18;;;;;;;24.87;13.15;;;;;;;5.10;100.00;98814.03;1769117;80;21299;-78
2021/03/17 06:25:25;;;;;;;23.40;12.05;;;;;;;5.16;100.00;98813.83;1766592;80;21223;-78
2021/03/17 06:28:33;;;;;;;21.90;12.65;;;;;;;5.26;100.00;98819.87;1770957;79;22034;-78
2021/03/17 06:31:43;;;;;;;19.60;12.45;;;;;;;5.34;100.00;98819.83;1768879;79;21598;-76
2021/03/17 06:34:58;;;;;;;22.67;12.50;;;;;;;5.41;100.00;98819.97;1765733;79;21307;-78
2021/03/17 06:38:08;;;;;;;24.80;13.25;;;;;;;5.49;100.00;98821.25;1772355;79;21318;-78
2021/03/17 06:41:12;;;;;;;21.80;12.03;;;;;;;5.56;100.00;98818.16;1767933;80;22268;-78
2021/03/17 06:44:32;;;;;;;20.17;11.25;;;;;;;5.67;100.00;98815.53;1767280;79;21690;-81
2021/03/17 06:47:39;;;;;;;32.58;11.20;;;;;;;5.87;100.00;98813.16;1747143;79;21160;-78
2021/03/17 06:51:25;;;;;;;20.48;11.73;;;;;;;6.14;100.00;98813.13;1771181;79;21312;-80
2021/03/17 06:54:37;;;;;;;22.45;11.95;;;;;;;6.35;100.00;98809.20;1766406;79;21322;-78
2021/03/17 06:57:50;;;;;;;19.50;12.18;;;;;;;6.56;100.00;98811.67;1767577;79;21342;-78
2021/03/17 07:00:57;;;;;;;24.25;11.85;;;;;;;6.70;100.00;98811.35;1747801;80;21339;-79
2021/03/17 07:04:14;;;;;;;18.00;10.48;;;;;;;6.81;99.98;98808.98;1768812;80;21201;-79
2021/03/17 07:07:20;;;;;;;;;;;;;;;6.98;99.28;98808.28;1773359;80;21227;-79
2021/03/17 07:10:41;;;;;;;19.17;10.88;;;;;;;7.20;98.33;98815.98;1828927;76;22247;-78
2021/03/17 07:13:48;;;;;;;15.15;9.60;;;;;;;7.23;97.60;98817.46;1788569;77;21201;-78
2021/03/17 07:16:53;;;;;;;17.35;10.53;;;;;;;7.30;96.88;98816.52;1776804;78;21617;-77
2021/03/17 07:20:01;;;;;;;22.82;10.55;;;;;;;7.37;96.08;98821.50;1768731;79;21957;-78
2021/03/17 07:23:09;;;;;;;19.90;10.93;;;;;;;7.43;95.46;98827.55;1774968;79;22504;-79
2021/03/17 07:26:35;;;;;;;23.15;9.88;;;;;;;7.43;94.86;98818.03;1771200;79;21322;-78
2021/03/17 07:29:46;;;;;;;17.42;8.98;;;;;;;7.44;94.23;98821.59;1769942;79;21173;-79
2021/03/17 07:33:07;;;;;;;17.00;9.90;;;;;;;7.42;93.65;98827.72;1774935;78;21331;-78
2021/03/17 07:36:23;;;;;;;23.18;10.30;;;;;;;7.42;93.45;98820.41;1753758;79;21353;-77
2021/03/17 07:39:42;;;;;;;18.27;10.63;;;;;;;7.48;93.17;98828.83;1766683;79;21547;-78
2021/03/17 07:42:54;;;;;;;12.65;9.15;;;;;;;7.50;92.86;98828.97;1778429;79;21874;-79
2021/03/17 07:46:08;;;;;;;15.28;9.53;;;;;;;7.54;92.69;98825.36;1773099;79;21575;-78
2021/03/17 07:49:32;;;;;;;19.10;10.63;;;;;;;7.56;92.43;98818.67;1770815;79;21525;-81
2021/03/17 07:52:46;;;;;;;15.68;9.95;;;;;;;7.62;92.27;98817.92;1772624;79;21745;-78
2021/03/17 07:55:49;;;;;;;17.23;10.32;;;;;;;7.71;92.26;98813.69;1768969;79;21354;-78
2021/03/17 07:59:13;;;;;;;19.05;9.88;;;;;;;7.86;92.29;98819.41;1767668;79;22643;-79
2021/03/17 08:02:37;;;;;;;15.88;9.95;;;;;;;8.16;91.78;98823.33;1847379;76;22184;-80
2021/03/17 08:05:52;;;;;;;19.30;11.53;;;;;;;8.20;91.02;98832.27;1811141;77;21881;-79
2021/03/17 08:09:11;;;;;;;14.70;8.60;;;;;;;8.21;90.21;98827.66;1817351;77;21357;-79
2021/03/17 08:12:23;;;;;;;15.50;8.83;;;;;;;8.22;89.72;98832.06;1740796;80;21639;-78
2021/03/17 08:15:31;;;;;;;15.23;8.57;;;;;;;8.16;89.14;98831.50;1757311;78;22057;-78
2021/03/17 08:18:50;;;;;;;16.25;9.33;;;;;;;8.08;88.82;98825.66;1772095;78;21733;-80
2021/03/17 08:22:09;;;;;;;15.40;8.68;;;;;;;8.11;89.19;98824.44;1753962;79;21189;-79
2021/03/17 08:25:20;;;;;;;19.55;9.43;;;;;;;8.29;89.67;98831.61;1775889;79;21181;-78
2021/03/17 08:28:29;;;;;;;14.50;7.70;;;;;;;8.44;89.30;98826.09;1743848;79;21185;-78
2021/03/17 08:31:50;;;;;;;13.05;7.25;;;;;;;8.55;88.45;98821.44;1773180;78;21350;-79
2021/03/17 08:35:04;;;;;;;15.90;7.83;;;;;;;8.71;88.28;98823.03;1775180;78;21320;-79
2021/03/17 08:38:08;;;;;;;11.38;7.08;;;;;;;8.93;87.90;98822.39;1758712;78;21275;-79
2021/03/17 08:41:13;;;;;;;14.68;6.75;;;;;;;9.10;86.42;98812.84;1688324;82;21422;-78
2021/03/17 08:44:31;;;;;;;15.30;7.08;;;;;;;9.28;85.33;98817.74;1738198;81;21302;-78
2021/03/17 08:47:52;;;;;;;13.10;7.22;;;;;;;9.50;84.24;98818.42;1735201;80;21162;-78
2021/03/17 08:50:58;;;;;;;14.78;7.12;;;;;;;9.77;83.49;98806.21;1690064;83;21189;-79
2021/03/17 08:54:04;;;;;;;13.38;7.12;;;;;;;9.93;81.54;98806.66;1693734;81;21180;-79
2021/03/17 08:57:16;;;;;;;12.78;6.30;;;;;;;9.98;81.33;98801.41;1734748;81;21219;-79
2021/03/17 09:00:23;;;;;;;17.02;7.00;;;;;;;10.06;80.46;98804.45;1736507;81;21302;-79
2021/03/17 09:03:51;;;;;;;16.95;7.42;;;;;;;10.05;80.23;98801.94;1719712;80;21735;-79
2021/03/17 09:07:14;;;;;;;15.60;6.17;;;;;;;10.15;80.03;98801.82;1768535;79;21307;-79
2021/03/17 09:10:33;;;;;;;12.30;7.00;;;;;;;10.24;78.58;98809.32;1707458;81;21764;-80
2021/03/17 09:13:56;;;;;;;8.43;5.22;;;;;;;10.26;78.10;98807.73;1763219;78;21197;-80
2021/03/17 09:17:21;;;;;;;9.25;6.30;;;;;;;10.34;77.88;98805.63;1762534;78;21251;-80
2021/03/17 09:20:44;;;;;;;8.98;5.80;;;;;;;10.39;77.49;98800.37;1765914;79;21291;-79
2021/03/17 09:23:50;;;;;;;10.45;5.60;;;;;;;10.53;77.00;98804.45;1753984;78;21992;-81
2021/03/17 09:27:09;;;;;;;10.70;5.55;;;;;;;10.61;76.49;98804.24;1764393;78;21325;-79
2021/03/17 09:30:19;;;;;;;7.97;6.00;;;;;;;10.60;75.71;98814.34;1749721;80;21312;-79
2021/03/17 09:33:37;;;;;;;11.33;5.85;;;;;;;10.61;75.06;98817.91;1754088;78;21188;-80
2021/03/17 09:36:45;;;;;;;15.45;8.20;;;;;;;10.57;74.48;98816.66;1763887;79;21165;-79
2021/03/17 09:39:55;;;;;;;14.60;8.70;;;;;;;10.45;74.74;98820.05;1758856;79;21181;-79
2021/03/17 09:43:00;;;;;;;14.60;8.43;;;;;;;10.34;74.93;98821.19;1765060;79;21323;-79
2021/03/17 09:46:08;;;;;;;11.83;7.47;;;;;;;10.20;75.83;98821.69;1712113;81;21421;-80
2021/03/17 09:49:27;;;;;;;12.03;7.20;;;;;;;10.08;75.35;98818.75;1769149;79;21323;-79
2021/03/17 09:52:35;;;;;;;13.40;7.30;;;;;;;10.03;74.87;98828.63;1766606;78;21307;-81
2021/03/17 09:55:42;;;;;;;17.12;8.28;;;;;;;9.92;75.03;98819.98;1767160;79;21881;-80
2021/03/17 09:58:49;;;;;;;16.60;7.67;;;;;;;9.93;75.55;98823.05;1769227;79;21848;-79
2021/03/17 10:02:04;;;;;;;15.60;8.05;;;;;;;10.01;75.60;98817.89;1765957;79;21209;-79
2021/03/17 10:05:13;;;;;;;11.22;7.70;;;;;;;10.08;76.22;98818.75;1690308;83;21304;-80
2021/03/17 10:08:49;;;;;;;12.15;8.43;;;;;;;10.10;76.54;98825.36;1721179;80;21191;-82
2021/03/17 10:12:07;;;;;;;14.38;8.23;;;;;;;10.11;75.44;98819.68;1724612;81;21303;-82
2021/03/17 10:15:16;;;;;;;10.93;7.20;;;;;;;10.08;75.31;98821.48;1725352;80;21277;-81
2021/03/17 10:18:24;;;;;;;12.68;7.70;;;;;;;10.10;76.05;98816.64;1724329;80;21341;-81
2021/03/17 10:21:34;;;;;;;15.38;6.67;;;;;;;10.20;75.62;98818.42;1724318;80;21339;-81
2021/03/17 10:24:56;;;;;;;11.97;7.20;;;;;;;10.17;74.30;98818.86;1721877;80;21252;-80
2021/03/17 10:28:11;;;;;;;12.07;6.35;;;;;;;10.13;73.84;98821.70;1720398;80;21312;-80
2021/03/17 10:31:16;;;;;;;13.22;7.90;;;;;;;10.16;73.92;98814.45;1721183;80;21326;-79
2021/03/17 10:34:23;;;;;;;15.50;7.70;;;;;;;10.23;73.88;98814.44;1723650;80;21204;-80
2021/03/17 10:37:30;;;;;;;10.43;5.97;;;;;;;10.32;74.60;98814.58;1722445;82;21354;-80
2021/03/17 10:40:37;;;;;;;13.58;6.53;;;;;;;10.44;74.41;98815.64;1692922;82;21334;-80
2021/03/17 10:43:47;;;;;;;10.28;5.87;;;;;;;10.53;73.85;98808.56;1722710;81;21217;-79
2021/03/17 10:47:14;;;;;;;11.33;6.50;;;;;;;10.67;73.32;98817.05;1724841;80;21769;-80
2021/03/17 10:50:25;;;;;;;7.20;5.92;;;;;;;10.66;71.85;98814.02;1699855;81;22107;-80
2021/03/17 10:53:36;;;;;;;13.53;7.58;;;;;;;10.62;71.12;98804.02;1723292;81;21397;-80
2021/03/17 10:56:43;;;;;;;13.05;6.58;;;;;;;10.63;71.61;98808.46;1701107;81;21392;-81
2021/03/17 10:59:49;;;;;;;11.18;6.20;;;;;;;10.62;71.35;98805.39;1720424;81;21315;-81
2021/03/17 11:02:55;;;;;;;12.33;9.25;;;;;;;10.68;71.44;98799.09;1698722;83;21395;-81
2021/03/17 11:06:27;;;;;;;11.50;7.03;;;;;;;10.87;71.39;98801.95;1767582;79;21312;-80
2021/03/17 11:09:33;;;;;;;8.43;5.55;;;;;;;10.99;70.73;98797.52;1768985;79;21374;-81
2021/03/17 11:12:41;;;;;;;11.00;5.67;;;;;;;11.24;71.26;98797.61;1709650;81;21322;-81
2021/03/17 11:16:09;;;;;;;13.25;6.00;;;;;;;11.44;70.30;98798.38;1710215;82;21742;-80
2021/03/17 11:19:21;;;;;;;11.30;6.22;;;;;;;11.44;69.50;98798.38;1775556;78;21351;-79
2021/03/17 11:22:40;;;;;;;8.55;5.05;;;;;;;11.46;68.96;98796.78;1729746;77;21200;-80
2021/03/17 11:25:48;;;;;;;10.00;7.10;;;;;;;11.55;68.75;98802.31;1777665;77;21319;-80
2021/03/17 11:28:55;;;;;;;14.47;7.22;;;;;;;11.51;68.37;98793.69;1713818;81;22273;-80
2021/03/17 11:32:15;;;;;;;10.75;5.83;;;;;;;11.37;68.68;98788.52;1777034;77;21504;-80
2021/03/17 11:35:21;;;;;;;8.18;4.87;;;;;;;11.26;69.22;98788.14;1772374;79;21359;-79
2021/03/17 11:38:28;;;;;;;6.90;4.75;;;;;;;11.16;67.99;98787.77;1778839;78;21542;-79
2021/03/17 11:41:34;;;;;;;13.62;5.50;;;;;;;11.14;67.88;98791.77;1774760;79;21306;-79
2021/03/17 11:44:42;;;;;;;6.95;4.12;;;;;;;11.19;67.85;98791.95;1780275;78;21150;-79
2021/03/17 11:47:48;;;;;;;9.73;5.58;;;;;;;11.24;67.63;98793.02;1782172;79;21279;-79
2021/03/17 11:50:56;;;;;;;8.58;5.10;;;;;;;11.24;67.49;98786.17;1777169;78;21327;-79
2021/03/17 11:54:02;;;;;;;8.03;4.72;;;;;;;11.27;67.53;98784.88;1777022;77;21287;-79
2021/03/17 11:57:08;;;;;;;11.68;5.25;;;;;;;11.33;67.20;98788.10;1782157;78;21279;-78
2021/03/17 12:00:15;;;;;;;7.20;5.47;;;;;;;11.28;66.00;98786.55;1759088;79;21571;-78
2021/03/17 12:03:24;;;;;;;8.40;5.10;;;;;;;11.18;65.84;98787.02;1777004;79;21310;-81
2021/03/17 12:10:41;;;;;;;6.95;4.97;;;;;;;11.01;66.18;98788.58;1782590;79;21283;-80
2021/03/17 12:13:50;;;;;;;8.28;5.05;;;;;;;11.05;67.34;98784.86;1766878;79;21350;-80
2021/03/17 12:16:59;;;;;;;11.88;5.83;;;;;;;11.04;66.73;98784.02;1760966;78;21231;-80
2021/03/17 12:20:05;;;;;;;7.45;5.30;;;;;;;11.03;67.01;98784.25;1786941;78;21283;-80
2021/03/17 12:23:10;;;;;;;13.45;6.22;;;;;;;10.99;67.19;98781.94;1786976;79;21318;-79
2021/03/17 12:26:16;;;;;;;9.13;5.72;;;;;;;10.91;67.43;98782.70;1788204;78;21732;-80
2021/03/17 12:29:28;;;;;;;8.95;5.03;;;;;;;10.87;67.69;98778.70;1727384;81;21307;-81
2021/03/17 12:32:34;;;;;;;11.78;5.47;;;;;;;10.89;68.20;98782.92;1763581;79;21291;-79
2021/03/17 12:35:38;;;;;;;10.25;5.42;;;;;;;10.88;67.83;98776.31;1730547;81;21440;-80
2021/03/17 12:38:48;;;;;;;6.72;4.87;;;;;;;10.91;67.21;98778.06;1763070;80;21195;-80
2021/03/17 12:41:54;;;;;;;7.33;4.60;;;;;;;10.91;67.25;98768.48;1763559;79;21347;-80
2021/03/17 12:45:00;;;;;;;8.40;5.15;;;;;;;10.93;67.34;98765.55;1769474;79;21145;-80
2021/03/17 12:48:06;;;;;;;8.73;5.30;;;;;;;10.94;66.78;98763.12;1762134;79;21145;-80
2021/03/17 12:51:14;;;;;;;9.68;4.80;;;;;;;10.93;66.39;98759.55;1771335;79;21343;-80
2021/03/17 12:54:21;;;;;;;7.87;4.90;;;;;;;10.91;66.19;98758.91;1770620;80;21268;-80
2021/03/17 12:57:28;;;;;;;8.63;4.85;;;;;;;10.85;65.78;98754.31;1767333;79;21652;-80
2021/03/17 13:00:38;;;;;;;7.53;4.53;;;;;;;10.79;64.65;98752.45;1766431;79;21872;-80
2021/03/17 13:03:45;;;;;;;8.35;5.15;;;;;;;10.71;65.67;98755.41;1770716;79;21182;-80
2021/03/17 13:06:54;;;;;;;10.28;5.30;;;;;;;10.75;66.58;98764.88;1771166;78;21280;-79
2021/03/17 13:10:00;;;;;;;9.23;5.35;;;;;;;10.80;66.59;98771.91;1767551;80;21161;-79
2021/03/17 13:13:07;;;;;;;9.93;5.30;;;;;;;10.79;65.51;98767.50;1765666;80;21173;-80
2021/03/17 13:16:15;;;;;;;7.92;4.83;;;;;;;10.79;66.19;98764.76;1753849;80;21169;-79
2021/03/17 13:19:22;;;;;;;7.60;5.50;;;;;;;10.84;65.89;98766.85;1738657;82;21342;-79
2021/03/17 13:22:28;;;;;;;13.05;4.85;;;;;;;10.83;65.78;98766.55;1766421;80;21162;-80
2021/03/17 13:25:40;;;;;;;11.15;4.80;;;;;;;10.81;65.50;98765.38;1768172;80;21350;-80
2021/03/17 13:28:46;;;;;;;9.63;5.22;;;;;;;10.81;65.74;98767.27;1767663;80;21173;-80
2021/03/17 13:31:52;;;;;;;5.62;4.53;;;;;;;10.80;65.62;98769.17;1766608;80;21256;-79
2021/03/17 13:35:01;;;;;;;6.95;4.90;;;;;;;10.78;65.30;98774.03;1767230;80;22575;-80
2021/03/17 13:38:06;;;;;;;9.25;4.40;;;;;;;10.78;65.66;98774.03;1769186;80;21173;-80
2021/03/17 13:41:09;;;;;;;6.65;4.42;;;;;;;10.83;65.77;98776.95;1732127;82;21159;-80
2021/03/17 13:44:15;;;;;;;6.62;4.45;;;;;;;10.85;65.72;98772.09;1769559;80;21299;-81
2021/03/17 13:47:20;;;;;;;12.05;7.58;;;;;;;10.84;65.51;98772.32;1729213;82;21279;-79
2021/03/17 13:50:28;;;;;;;18.80;9.05;;;;;;;10.81;65.27;98768.11;1768025;80;21272;-78
2021/03/17 13:53:37;;;;;;;28.67;10.88;;;;;;;10.77;65.45;98760.02;1762335;80;21166;-79
2021/03/17 13:56:43;;;;;;;17.12;9.55;;;;;;;10.74;65.37;98768.67;1768243;80;21787;-79
2021/03/17 13:59:49;;;;;;;28.95;13.85;;;;;;;10.69;65.05;98761.11;1771284;80;21519;-80
2021/03/17 14:02:57;;;;;;;28.50;13.80;;;;;;;10.68;65.04;98765.41;1766300;80;21268;-81
2021/03/17 14:06:04;;;;;;;39.58;15.98;;;;;;;10.64;65.26;98769.65;1734277;82;21382;-80
2021/03/17 14:09:11;;;;;;;31.42;14.98;;;;;;;10.61;64.99;98768.70;1741410;80;21268;-80
2021/03/17 14:12:16;;;;;;;32.25;14.68;;;;;;;10.55;64.70;98768.20;1706760;82;21277;-80
2021/03/17 14:15:23;;;;;;;29.90;14.43;;;;;;;10.49;65.11;98765.27;1724252;81;21795;-80
2021/03/17 14:18:30;;;;;;;31.90;15.40;;;;;;;10.48;65.76;98761.36;1747108;80;21255;-79
2021/03/17 14:21:36;;;;;;;21.52;11.88;;;;;;;10.48;65.81;98766.30;1749432;80;21330;-80
2021/03/17 14:24:42;;;;;;;16.95;8.73;;;;;;;10.45;65.75;98757.17;1715891;81;21182;-80
2021/03/17 14:27:48;;;;;;;19.60;8.28;;;;;;;10.40;65.27;98761.08;1730489;81;21172;-80
2021/03/17 14:30:55;;;;;;;20.65;7.35;;;;;;;10.38;65.48;98760.95;1728045;81;21181;-80
2021/03/17 14:34:02;;;;;;;17.67;8.38;;;;;;;10.36;65.15;98763.08;1732179;81;21257;-80
2021/03/17 14:37:08;;;;;;;13.68;6.25;;;;;;;10.33;65.39;98767.59;1750865;80;21239;-80
2021/03/17 14:40:15;;;;;;;18.20;6.75;;;;;;;10.23;66.11;98766.09;1702411;83;21247;-80
2021/03/17 14:43:21;;;;;;;18.65;8.28;;;;;;;10.16;66.82;98769.88;1752937;80;21275;-80
2021/03/17 14:46:27;;;;;;;14.10;8.43;;;;;;;10.08;66.82;98762.75;1725086;82;21331;-80
2021/03/17 14:49:31;;;;;;;29.90;10.70;;;;;;;9.98;66.97;98768.64;1711721;82;21683;-80
2021/03/17 14:52:37;;;;;;;20.82;10.23;;;;;;;9.93;67.79;98767.59;1757555;80;21145;-80